Terminal Aerodrome Forecast
Issued by NWS

Home | Current Version | Previous Version | Text Only | Print | Product List | Glossary On
Versions: 1 2 3 4 5 6 7 8 9 10 11 12 13 14 15
000
FTUS43 KGRR 241523 AAA
TAFMKG
TAF AMD
KMKG 241523Z 2415/2512 18009KT P6SM VCSH BKN100
     FM242300 16008KT P6SM -SHRA FEW015 BKN060
     FM250900 19005KT 6SM BR VCSH BKN015=

USA.gov is the U.S. government's official web portal to all federal, state and local government web resources and services.